createdAt,value
2022-09-20T00:00:06.268Z,95788.97
2022-09-20T00:02:32.787Z,95791.81
2022-09-20T00:04:59.268Z,95795.31
2022-09-20T00:07:25.874Z,95804.91
2022-09-20T00:09:52.335Z,95790.81
2022-09-20T00:12:18.906Z,95798.16
2022-09-20T00:14:45.349Z,95786.81
2022-09-20T00:17:11.946Z,95790.63
2022-09-20T00:19:38.671Z,95796.38
2022-09-20T00:22:05.169Z,95783.09
2022-09-20T00:24:31.790Z,95786.94
2022-09-20T00:26:58.338Z,95783.72
2022-09-20T00:29:24.896Z,95783.72
2022-09-20T00:31:51.492Z,95781.63
2022-09-20T00:34:18.138Z,95779.22
2022-09-20T00:36:45.009Z,95784.63
2022-09-20T00:39:13.694Z,95783.84
2022-09-20T00:41:40.329Z,95780.34
2022-09-20T00:44:41.968Z,95777.75
2022-09-20T00:47:31.488Z,95783.50
2022-09-20T00:50:31.766Z,95775.66
2022-09-20T00:53:04.331Z,95775.66
2022-09-20T00:55:32.025Z,95773.72
2022-09-20T00:57:59.554Z,95781.09
2022-09-20T01:00:26.800Z,95776.44
2022-09-20T01:02:59.107Z,95787.31
2022-09-20T01:05:26.859Z,95780.78
2022-09-20T01:07:54.597Z,95778.84
2022-09-20T01:10:21.126Z,95785.91
2022-09-20T01:12:50.383Z,95785.59
2022-09-20T01:15:17.724Z,95782.88
2022-09-20T01:17:48.678Z,95790.19
2022-09-20T01:20:25.667Z,95786.38
2022-09-20T01:23:13.285Z,95778.25
2022-09-20T01:26:04.072Z,95780.16
2022-09-20T01:28:31.238Z,95768.97
2022-09-20T01:31:21.021Z,95775.53
2022-09-20T01:33:58.248Z,95770.59
2022-09-20T01:36:33.382Z,95769.47
2022-09-20T01:39:05.513Z,95769.66
2022-09-20T01:41:53.384Z,95765.84
2022-09-20T01:44:52.002Z,95760.34
2022-09-20T01:47:41.850Z,95766.63
2022-09-20T01:50:33.581Z,95758.97
2022-09-20T01:53:16.727Z,95767.63
2022-09-20T01:56:01.570Z,95763.78
2022-09-20T01:58:46.941Z,95763.78
2022-09-20T02:01:36.600Z,95754.84
2022-09-20T02:04:33.863Z,95758.38
2022-09-20T02:07:20.095Z,95750.22
2022-09-20T02:10:07.292Z,95748.31
2022-09-20T02:12:56.809Z,95748.63
2022-09-20T02:15:26.319Z,95744.47
2022-09-20T02:18:30.184Z,95746.72
2022-09-20T02:20:59.260Z,95749.13
2022-09-20T02:23:50.807Z,95747.50
2022-09-20T02:26:24.662Z,95749.13
2022-09-20T02:29:14.887Z,95751.84
2022-09-20T02:32:00.448Z,95759.19
2022-09-20T02:34:45.606Z,95757.25
2022-09-20T02:37:30.695Z,95754.25
2022-09-20T02:40:22.114Z,95761.91
2022-09-20T02:42:54.604Z,95759.97
2022-09-20T02:45:28.897Z,95761.59
2022-09-20T02:48:03.015Z,95763.47
2022-09-20T02:51:03.306Z,95764.63
2022-09-20T02:53:40.938Z,95760.47
2022-09-20T02:56:41.403Z,95764.31
2022-09-20T02:59:40.662Z,95765.09
2022-09-20T03:02:22.656Z,95765.59
2022-09-20T03:04:49.311Z,95764.47
2022-09-20T03:07:37.114Z,95764.19
2022-09-20T03:10:10.352Z,95769.09
2022-09-20T03:13:13.803Z,95764.00
2022-09-20T03:16:08.478Z,95764.78
2022-09-20T03:19:30.532Z,95774.03
2022-09-20T03:22:28.895Z,95774.03
2022-09-20T03:25:20.165Z,95766.72
2022-09-20T03:28:09.413Z,95769.22
2022-09-20T03:30:52.549Z,95770.84
2022-09-20T03:33:51.598Z,95771.44
2022-09-20T03:36:45.619Z,95764.63
2022-09-20T03:39:21.258Z,95764.09
2022-09-20T03:42:16.639Z,95762.00
2022-09-20T03:44:46.076Z,95758.97
2022-09-20T03:47:34.433Z,95774.78
2022-09-20T03:50:35.734Z,95768.88
2022-09-20T03:53:31.302Z,95767.75
2022-09-20T03:56:21.821Z,95762.63
2022-09-20T03:58:55.936Z,95775.88
2022-09-20T04:01:37.625Z,95771.59
2022-09-20T04:04:04.397Z,95765.34
2022-09-20T04:06:49.838Z,95770.44
2022-09-20T04:09:33.827Z,95766.63
2022-09-20T04:12:06.119Z,95774.00
2022-09-20T04:14:57.547Z,95768.88
2022-09-20T04:18:14.814Z,95771.06
2022-09-20T04:20:50.115Z,95774.28
2022-09-20T04:23:53.925Z,95774.28
2022-09-20T04:26:29.450Z,95781.63
2022-09-20T04:29:23.198Z,95781.63
2022-09-20T04:31:59.283Z,95779.22
2022-09-20T04:34:33.292Z,95783.84
2022-09-20T04:37:02.765Z,95778.72
2022-09-20T04:39:32.118Z,95784.16
2022-09-20T04:42:14.250Z,95789.09
2022-09-20T04:44:51.783Z,95793.41
2022-09-20T04:47:42.485Z,95793.22
2022-09-20T04:50:20.967Z,95789.72
2022-09-20T04:53:24.862Z,95788.09
2022-09-20T04:55:56.463Z,95790.00
2022-09-20T04:58:29.013Z,95793.53
2022-09-20T05:00:58.781Z,95790.50
2022-09-20T05:03:53.135Z,95791.13
2022-09-20T05:07:01.613Z,95791.94
2022-09-20T05:10:14.690Z,95795.75
2022-09-20T05:13:09.271Z,95800.38
2022-09-20T05:15:44.207Z,95801.50
2022-09-20T05:18:29.547Z,95803.09
2022-09-20T05:21:22.806Z,95802.88
2022-09-20T05:23:55.340Z,95810.25
2022-09-20T05:27:03.903Z,95807.03
2022-09-20T05:29:55.516Z,95807.34
2022-09-20T05:32:51.989Z,95811.94
2022-09-20T05:35:39.440Z,95812.47
2022-09-20T05:38:22.086Z,95819.78
2022-09-20T05:41:22.769Z,95816.28
2022-09-20T05:44:01.976Z,95814.34
2022-09-20T05:46:34.551Z,95814.34
2022-09-20T05:49:25.867Z,95825.22
2022-09-20T05:51:59.919Z,95820.00
2022-09-20T05:54:43.650Z,95816.97
2022-09-20T05:57:32.194Z,95827.53
2022-09-20T06:00:03.232Z,95823.91
2022-09-20T06:03:15.140Z,95823.59
2022-09-20T06:06:06.973Z,95828.38
2022-09-20T06:08:48.208Z,95834.81
2022-09-20T06:11:52.366Z,95832.28
2022-09-20T06:14:40.521Z,95824.03
2022-09-20T06:17:30.991Z,95840.50
2022-09-20T06:20:04.799Z,95838.75
2022-09-20T06:22:34.148Z,95838.38
2022-09-20T06:25:09.769Z,95830.69
2022-09-20T06:27:53.802Z,95837.75
2022-09-20T06:30:34.296Z,95839.81
2022-09-20T06:33:13.893Z,95841.13
2022-09-20T06:35:46.382Z,95847.88
2022-09-20T06:38:41.090Z,95839.72
2022-09-20T06:41:10.648Z,95849.97
2022-09-20T06:43:37.148Z,95858.91
2022-09-20T06:46:03.758Z,95850.47
2022-09-20T06:48:30.252Z,95854.78
2022-09-20T06:50:56.871Z,95856.38
2022-09-20T06:53:29.473Z,95858.00
2022-09-20T06:55:57.336Z,95859.09
2022-09-20T06:58:23.780Z,95860.53
2022-09-20T07:00:50.342Z,95870.09
2022-09-20T07:03:16.866Z,95868.28
2022-09-20T07:05:43.452Z,95862.69
2022-09-20T07:08:09.930Z,95868.72
2022-09-20T07:10:36.486Z,95865.81
2022-09-20T07:13:03.264Z,95865.63
2022-09-20T07:15:32.286Z,95864.34
2022-09-20T07:17:59.338Z,95862.22
2022-09-20T07:20:26.228Z,95864.66
2022-09-20T07:22:52.860Z,95865.44
2022-09-20T07:25:20.271Z,95869.16
2022-09-20T07:27:49.052Z,95869.63
2022-09-20T07:30:15.692Z,95880.69
2022-09-20T07:32:42.231Z,95875.78
2022-09-20T07:35:10.287Z,95877.34
2022-09-20T07:37:37.388Z,95875.38
2022-09-20T07:40:05.498Z,95869.22
2022-09-20T07:42:32.134Z,95879.41
2022-09-20T07:45:05.143Z,95884.09
2022-09-20T07:47:31.695Z,95873.25
2022-09-20T07:49:58.409Z,95875.66
2022-09-20T07:52:25.013Z,95874.50
2022-09-20T07:54:51.687Z,95873.91
2022-09-20T07:57:18.200Z,95868.38
2022-09-20T07:59:44.719Z,95867.97
2022-09-20T08:02:15.328Z,95882.09
2022-09-20T08:04:42.732Z,95870.19
2022-09-20T08:07:09.575Z,95877.25
2022-09-20T08:09:36.100Z,95873.97
2022-09-20T08:14:49.866Z,95890.69
2022-09-20T08:17:16.360Z,95888.94
2022-09-20T08:19:42.850Z,95896.00
2022-09-20T08:22:09.464Z,95897.44
2022-09-20T08:24:36.173Z,95893.72
2022-09-20T08:27:02.662Z,95895.16
2022-09-20T08:29:29.236Z,95894.16
2022-09-20T08:31:55.813Z,95900.22
2022-09-20T08:34:22.396Z,95899.75
2022-09-20T08:36:48.862Z,95893.19
2022-09-20T08:42:17.224Z,95898.75
2022-09-20T08:44:57.829Z,95899.06
2022-09-20T08:47:46.491Z,95897.16
2022-09-20T08:50:17.546Z,95895.22
2022-09-20T08:52:47.165Z,95900.66
2022-09-20T08:55:39.955Z,95890.59
2022-09-20T08:58:11.029Z,95887.75
2022-09-20T09:00:39.773Z,95890.81
2022-09-20T09:03:15.495Z,95898.22
2022-09-20T09:05:55.447Z,95899.69
2022-09-20T09:08:25.749Z,95896.50
2022-09-20T09:10:55.701Z,95899.91
2022-09-20T09:14:01.225Z,95896.72
2022-09-20T09:16:35.509Z,95899.31
2022-09-20T09:19:33.959Z,95901.41
2022-09-20T09:22:03.314Z,95905.13
2022-09-20T09:24:29.854Z,95899.84
2022-09-20T09:27:07.036Z,95894.56
2022-09-20T09:29:35.009Z,95889.78
2022-09-20T09:32:18.644Z,95886.91
2022-09-20T09:34:45.352Z,95886.94
2022-09-20T09:37:30.108Z,95882.31
2022-09-20T09:40:26.493Z,95880.75
2022-09-20T09:42:55.954Z,95885.75
2022-09-20T09:45:28.674Z,95870.69
2022-09-20T09:47:56.609Z,95883.03
2022-09-20T09:50:26.883Z,95882.38
2022-09-20T09:53:09.690Z,95879.50
2022-09-20T09:55:52.550Z,95869.25
2022-09-20T09:58:57.857Z,95871.66
2022-09-20T10:01:57.954Z,95876.16
2022-09-20T10:04:38.079Z,95863.47
2022-09-20T10:07:33.579Z,95867.97
2022-09-20T10:10:27.610Z,95868.13
2022-09-20T10:13:23.184Z,95853.88
2022-09-20T10:16:20.654Z,95863.78
2022-09-20T10:19:24.884Z,95855.09
2022-09-20T10:22:00.646Z,95862.75
2022-09-20T10:24:58.904Z,95863.19
2022-09-20T10:28:17.516Z,95855.97
2022-09-20T10:30:46.823Z,95852.00
2022-09-20T10:33:38.263Z,95856.81
2022-09-20T10:36:20.085Z,95853.47
2022-09-20T10:39:02.139Z,95862.91
2022-09-20T10:41:54.427Z,95849.28
2022-09-20T10:45:03.611Z,95847.50
2022-09-20T10:47:39.287Z,95850.19
2022-09-20T10:50:36.431Z,95857.09
2022-09-20T10:53:23.907Z,95861.25
2022-09-20T10:56:13.600Z,95870.41
2022-09-20T10:58:59.058Z,95865.56
2022-09-20T11:01:37.235Z,95869.13
2022-09-20T11:04:15.556Z,95866.38
2022-09-20T11:07:08.311Z,95861.59
2022-09-20T11:09:40.532Z,95870.88
2022-09-20T11:12:16.413Z,95865.44
2022-09-20T11:14:57.730Z,95859.50
2022-09-20T11:17:26.156Z,95863.50
2022-09-20T11:20:09.914Z,95859.47
2022-09-20T11:22:55.623Z,95872.78
2022-09-20T11:25:31.148Z,95863.47
2022-09-20T11:28:05.352Z,95859.78
2022-09-20T11:30:35.996Z,95863.81
2022-09-20T11:33:21.770Z,95866.41
2022-09-20T11:36:14.037Z,95872.66
2022-09-20T11:38:53.080Z,95870.59
2022-09-20T11:41:32.024Z,95868.97
2022-09-20T11:44:10.679Z,95873.97
2022-09-20T11:46:46.296Z,95869.47
2022-09-20T11:49:19.662Z,95868.50
2022-09-20T11:51:52.808Z,95864.78
2022-09-20T11:54:28.291Z,95869.28
2022-09-20T11:56:57.496Z,95869.13
2022-09-20T11:59:50.080Z,95857.34
2022-09-20T12:02:34.698Z,95856.97
2022-09-20T12:05:03.718Z,95845.63
2022-09-20T12:07:36.887Z,95848.13
2022-09-20T12:10:21.495Z,95852.81
2022-09-20T12:12:54.864Z,95849.50
2022-09-20T12:15:21.371Z,95842.97
2022-09-20T12:17:47.909Z,95836.31
2022-09-20T12:20:32.723Z,95835.44
2022-09-20T12:23:36.710Z,95839.34
2022-09-20T12:26:04.920Z,95827.06
2022-09-20T12:28:34.831Z,95805.34
2022-09-20T12:31:30.332Z,95820.38
2022-09-20T12:34:00.977Z,95808.44
2022-09-20T12:36:30.477Z,95808.22
2022-09-20T12:39:00.840Z,95806.88
2022-09-20T12:41:28.957Z,95816.34
2022-09-20T12:44:02.776Z,95813.25
2022-09-20T12:46:35.502Z,95820.00
2022-09-20T12:49:22.873Z,95816.81
2022-09-20T12:51:51.131Z,95813.41
2022-09-20T12:54:17.712Z,95828.69
2022-09-20T12:56:44.441Z,95809.53
2022-09-20T12:59:25.463Z,95813.84
2022-09-20T13:01:52.077Z,95813.16
2022-09-20T13:04:50.863Z,95799.38
2022-09-20T13:07:34.421Z,95814.41
2022-09-20T13:10:25.978Z,95812.84
2022-09-20T13:12:58.164Z,95816.81
2022-09-20T13:15:25.117Z,95810.22
2022-09-20T13:17:54.939Z,95814.66
2022-09-20T13:20:25.344Z,95823.31
2022-09-20T13:22:58.228Z,95815.72
2022-09-20T13:25:27.103Z,95813.75
2022-09-20T13:28:07.387Z,95808.72
2022-09-20T13:30:33.952Z,95800.06
2022-09-20T13:33:23.268Z,95812.38
2022-09-20T13:35:56.183Z,95814.00
2022-09-20T13:38:26.840Z,95815.13
2022-09-20T13:41:03.631Z,95804.50
2022-09-20T13:43:32.377Z,95807.59
2022-09-20T13:46:06.418Z,95805.19
2022-09-20T13:48:32.970Z,95804.41
2022-09-20T13:50:59.543Z,95809.88
2022-09-20T13:53:40.993Z,95805.97
2022-09-20T13:56:20.626Z,95816.13
2022-09-20T13:58:48.868Z,95817.06
2022-09-20T14:01:29.023Z,95816.91
2022-09-20T14:04:04.982Z,95809.41
2022-09-20T14:06:32.359Z,95812.38
2022-09-20T14:09:02.599Z,95815.13
2022-09-20T14:11:30.914Z,95807.69
2022-09-20T14:14:02.919Z,95809.53
2022-09-20T14:16:37.966Z,95809.66
2022-09-20T14:19:06.798Z,95816.03
2022-09-20T14:21:35.214Z,95804.75
2022-09-20T14:24:07.643Z,95804.28
2022-09-20T14:26:36.568Z,95812.16
2022-09-20T14:29:33.659Z,95815.22
2022-09-20T14:32:06.319Z,95812.38
2022-09-20T14:34:37.724Z,95814.19
2022-09-20T14:37:25.267Z,95814.41
2022-09-20T14:39:57.299Z,95819.88
2022-09-20T14:42:33.990Z,95823.63
2022-09-20T14:45:01.885Z,95821.13
2022-09-20T14:47:36.919Z,95813.94
2022-09-20T14:50:05.283Z,95824.53
2022-09-20T14:52:36.616Z,95828.41
2022-09-20T14:55:18.195Z,95827.63
2022-09-20T14:57:46.190Z,95832.28
2022-09-20T15:00:15.105Z,95823.63
2022-09-20T15:02:44.202Z,95826.50
2022-09-20T15:05:36.687Z,95817.94
2022-09-20T15:08:03.252Z,95816.69
2022-09-20T15:10:29.765Z,95817.50
2022-09-20T15:12:56.217Z,95826.09
2022-09-20T15:15:22.736Z,95830.66
2022-09-20T15:17:49.207Z,95828.13
2022-09-20T15:20:24.195Z,95831.03
2022-09-20T15:22:51.280Z,95825.66
2022-09-20T15:25:21.207Z,95822.66
2022-09-20T15:27:48.885Z,95821.22
2022-09-20T15:30:17.640Z,95827.69
2022-09-20T15:32:44.589Z,95834.84
2022-09-20T15:35:12.127Z,95829.06
2022-09-20T15:37:38.603Z,95834.63
2022-09-20T15:40:06.657Z,95832.00
2022-09-20T15:42:33.618Z,95832.41
2022-09-20T15:45:00.104Z,95837.66
2022-09-20T15:47:26.540Z,95837.06
2022-09-20T15:49:53.000Z,95842.41
2022-09-20T15:52:19.477Z,95833.72
2022-09-20T15:54:45.981Z,95837.81
2022-09-20T15:57:12.562Z,95847.38
2022-09-20T15:59:39.025Z,95846.31
2022-09-20T16:02:05.622Z,95835.94
2022-09-20T16:04:32.189Z,95844.31
2022-09-20T16:06:58.714Z,95846.47
2022-09-20T16:09:25.188Z,95843.09
2022-09-20T16:11:51.682Z,95843.63
2022-09-20T16:14:18.160Z,95851.25
2022-09-20T16:19:48.365Z,95856.16
2022-09-20T16:22:15.212Z,95858.63
2022-09-20T16:24:42.047Z,95858.00
2022-09-20T16:27:09.696Z,95864.94
2022-09-20T16:29:36.762Z,95865.94
2022-09-20T16:32:04.528Z,95869.66
2022-09-20T16:34:34.648Z,95874.38
2022-09-20T16:37:07.230Z,95875.53
2022-09-20T16:39:34.213Z,95873.97
2022-09-20T16:42:03.388Z,95883.03
2022-09-20T16:44:31.747Z,95887.69
2022-09-20T16:46:58.727Z,95888.03
2022-09-20T16:49:25.754Z,95895.28
2022-09-20T16:51:52.905Z,95889.41
2022-09-20T16:54:19.960Z,95896.59
2022-09-20T16:56:48.729Z,95899.03
2022-09-20T16:59:17.753Z,95904.16
2022-09-20T17:01:45.433Z,95908.84
2022-09-20T17:04:12.670Z,95910.13
2022-09-20T17:06:39.625Z,95906.75
2022-09-20T17:09:07.203Z,95911.25
2022-09-20T17:11:36.921Z,95913.50
2022-09-20T17:14:04.806Z,95930.47
2022-09-20T17:16:34.703Z,95928.06
2022-09-20T17:19:04.851Z,95928.38
2022-09-20T17:21:33.354Z,95934.66
2022-09-20T17:24:04.365Z,95931.13
2022-09-20T17:26:33.228Z,95942.84
2022-09-20T17:29:02.849Z,95945.88
2022-09-20T17:32:03.032Z,95954.06
2022-09-20T17:34:38.960Z,95952.75
2022-09-20T17:37:08.362Z,95956.28
2022-09-20T17:39:37.808Z,95959.31
2022-09-20T17:42:14.619Z,95956.94
2022-09-20T17:44:41.178Z,95964.59
2022-09-20T17:47:07.680Z,95963.34
2022-09-20T17:49:34.306Z,95975.66
2022-09-20T17:52:01.020Z,95965.41
2022-09-20T17:54:27.519Z,95975.31
2022-09-20T17:56:54.378Z,95974.84
2022-09-20T17:59:21.111Z,95986.06
2022-09-20T18:01:50.079Z,95980.13
2022-09-20T18:04:16.966Z,95976.94
2022-09-20T18:06:48.833Z,95987.31
2022-09-20T18:09:18.724Z,95990.88
2022-09-20T18:11:47.709Z,95995.81
2022-09-20T18:14:15.989Z,95992.59
2022-09-20T18:16:42.931Z,96000.28
2022-09-20T18:19:10.064Z,96000.91
2022-09-20T18:21:38.297Z,96001.22
2022-09-20T18:24:05.583Z,96004.19
2022-09-20T18:26:32.329Z,96002.97
2022-09-20T18:29:13.306Z,96002.19
2022-09-20T18:31:52.731Z,96008.41
2022-09-20T18:34:21.685Z,96012.28
2022-09-20T18:36:52.143Z,96014.19
2022-09-20T18:39:26.276Z,96020.22
2022-09-20T18:41:53.484Z,96026.81
2022-09-20T18:44:21.123Z,96026.59
2022-09-20T18:46:48.542Z,96022.59
2022-09-20T18:49:15.429Z,96018.28
2022-09-20T18:51:43.021Z,96017.78
2022-09-20T18:54:11.851Z,96012.66
2022-09-20T18:56:43.851Z,96020.81
2022-09-20T18:59:19.279Z,96024.66
2022-09-20T19:01:52.080Z,96029.63
2022-09-20T19:04:42.953Z,96026.09
2022-09-20T19:07:27.414Z,96026.72
2022-09-20T19:10:00.023Z,96032.97
2022-09-20T19:12:37.511Z,96031.34
2022-09-20T19:15:33.215Z,96034.69
2022-09-20T19:18:26.705Z,96045.09
2022-09-20T19:21:05.269Z,96044.31
2022-09-20T19:24:03.056Z,96044.91
2022-09-20T19:26:32.630Z,96048.75
2022-09-20T19:29:00.634Z,96050.38
2022-09-20T19:31:28.884Z,96056.13
2022-09-20T19:33:57.693Z,96058.84
2022-09-20T19:36:39.141Z,96051.00
2022-09-20T19:39:31.885Z,96064.13
2022-09-20T19:42:09.813Z,96066.53
2022-09-20T19:44:39.252Z,96058.66
2022-09-20T19:47:17.941Z,96062.50
2022-09-20T19:49:54.201Z,96060.09
2022-09-20T19:52:22.274Z,96063.59
2022-09-20T19:54:50.538Z,96064.44
2022-09-20T19:57:23.360Z,96076.09
2022-09-20T19:59:50.800Z,96068.72
2022-09-20T20:02:18.076Z,96073.06
2022-09-20T20:04:44.887Z,96073.88
2022-09-20T20:07:20.163Z,96072.28
2022-09-20T20:10:17.582Z,96075.31
2022-09-20T20:13:01.856Z,96078.03
2022-09-20T20:15:37.767Z,96079.94
2022-09-20T20:18:28.997Z,96083.78
2022-09-20T20:20:56.560Z,96083.47
2022-09-20T20:23:29.151Z,96088.72
2022-09-20T20:26:04.911Z,96092.25
2022-09-20T20:28:31.798Z,96086.81
2022-09-20T20:31:00.405Z,96091.44
2022-09-20T20:33:26.993Z,96086.28
2022-09-20T20:35:59.209Z,96095.78
2022-09-20T20:38:27.449Z,96096.09
2022-09-20T20:41:04.730Z,96099.56
2022-09-20T20:43:36.984Z,96093.97
2022-09-20T20:46:05.434Z,96096.38
2022-09-20T20:48:32.476Z,96106.78
2022-09-20T20:51:20.271Z,96102.28
2022-09-20T20:53:51.837Z,96100.66
2022-09-20T20:56:27.465Z,96113.78
2022-09-20T20:58:55.256Z,96112.47
2022-09-20T21:01:24.429Z,96108.59
2022-09-20T21:03:52.864Z,96119.25
2022-09-20T21:06:21.206Z,96106.69
2022-09-20T21:08:49.704Z,96113.06
2022-09-20T21:11:30.661Z,96117.31
2022-09-20T21:13:59.290Z,96116.94
2022-09-20T21:16:28.368Z,96119.56
2022-09-20T21:18:55.502Z,96123.00
2022-09-20T21:21:30.601Z,96126.44
2022-09-20T21:24:00.448Z,96124.16
2022-09-20T21:26:28.922Z,96120.22
2022-09-20T21:28:57.988Z,96124.41
2022-09-20T21:31:25.983Z,96119.41
2022-09-20T21:33:52.799Z,96121.31
2022-09-20T21:36:22.213Z,96124.81
2022-09-20T21:38:48.890Z,96128.44
2022-09-20T21:41:20.688Z,96128.84
2022-09-20T21:43:47.601Z,96131.97
2022-09-20T21:46:16.658Z,96130.75
2022-09-20T21:48:44.001Z,96128.41
2022-09-20T21:51:13.645Z,96132.31
2022-09-20T21:53:40.973Z,96133.03
2022-09-20T21:56:10.482Z,96128.78
2022-09-20T21:58:37.370Z,96133.47
2022-09-20T22:01:09.573Z,96131.66
2022-09-20T22:03:38.917Z,96127.94
2022-09-20T22:06:12.846Z,96135.03
2022-09-20T22:08:48.328Z,96134.03
2022-09-20T22:11:16.031Z,96133.81
2022-09-20T22:13:44.419Z,96133.91
2022-09-20T22:16:13.872Z,96129.88
2022-09-20T22:18:42.008Z,96135.91
2022-09-20T22:21:10.279Z,96127.41
2022-09-20T22:23:37.055Z,96127.63
2022-09-20T22:26:09.430Z,96132.53
2022-09-20T22:28:36.830Z,96129.63
2022-09-20T22:31:12.126Z,96134.00
2022-09-20T22:33:43.622Z,96137.59
2022-09-20T22:36:12.574Z,96123.81
2022-09-20T22:38:39.306Z,96122.78
2022-09-20T22:41:06.197Z,96121.50
2022-09-20T22:43:34.321Z,96122.38
2022-09-20T22:46:04.788Z,96123.88
2022-09-20T22:48:35.146Z,96122.47
2022-09-20T22:51:03.957Z,96121.16
2022-09-20T22:53:31.648Z,96119.31
2022-09-20T22:56:06.794Z,96124.00
2022-09-20T22:58:35.663Z,96126.50
2022-09-20T23:01:12.039Z,96123.56
2022-09-20T23:03:40.828Z,96126.03
2022-09-20T23:06:19.424Z,96125.81
2022-09-20T23:08:46.087Z,96131.00
2022-09-20T23:11:13.437Z,96122.97
2022-09-20T23:13:39.943Z,96126.25
2022-09-20T23:16:20.216Z,96135.75
2022-09-20T23:18:48.002Z,96122.50
2022-09-20T23:21:15.681Z,96127.41
2022-09-20T23:23:42.686Z,96132.31
2022-09-20T23:26:15.399Z,96132.59
2022-09-20T23:28:43.926Z,96130.97
2022-09-20T23:31:17.374Z,96125.06
2022-09-20T23:33:54.933Z,96132.34
2022-09-20T23:36:22.986Z,96128.84
2022-09-20T23:38:49.635Z,96129.63
2022-09-20T23:41:18.714Z,96129.94
2022-09-20T23:43:45.275Z,96138.34
2022-09-20T23:46:13.795Z,96136.75
2022-09-20T23:48:40.448Z,96131.06
2022-09-20T23:51:08.045Z,96133.56
2022-09-20T23:53:34.788Z,96137.13
2022-09-20T23:56:01.964Z,96136.91
2022-09-20T23:58:28.470Z,96135.84
